sensor_id;sensor_type;location;lat;lon;timestamp;P1;durP1;ratioP1;P2;durP2;ratioP2
16973;SDS011;8603;46.944;7.412;2023-06-14T00:02:03;5.63;;;3.33;;
16973;SDS011;8603;46.944;7.412;2023-06-14T00:04:28;3.88;;;3.15;;
16973;SDS011;8603;46.944;7.412;2023-06-14T00:06:57;4.80;;;3.17;;
16973;SDS011;8603;46.944;7.412;2023-06-14T00:09:31;5.10;;;3.03;;
16973;SDS011;8603;46.944;7.412;2023-06-14T00:11:56;4.05;;;2.95;;
16973;SDS011;8603;46.944;7.412;2023-06-14T00:14:22;3.95;;;3.28;;
16973;SDS011;8603;46.944;7.412;2023-06-14T00:16:59;3.50;;;2.93;;
16973;SDS011;8603;46.944;7.412;2023-06-14T00:19:27;3.70;;;3.03;;
16973;SDS011;8603;46.944;7.412;2023-06-14T00:21:55;5.13;;;3.58;;
16973;SDS011;8603;46.944;7.412;2023-06-14T00:24:34;6.13;;;3.10;;
16973;SDS011;8603;46.944;7.412;2023-06-14T00:27:02;3.55;;;3.05;;
16973;SDS011;8603;46.944;7.412;2023-06-14T00:29:28;3.25;;;2.80;;
16973;SDS011;8603;46.944;7.412;2023-06-14T00:31:54;3.85;;;2.90;;
16973;SDS011;8603;46.944;7.412;2023-06-14T00:34:22;3.77;;;2.60;;
16973;SDS011;8603;46.944;7.412;2023-06-14T00:36:48;3.38;;;3.03;;
16973;SDS011;8603;46.944;7.412;2023-06-14T00:39:13;3.58;;;3.10;;
16973;SDS011;8603;46.944;7.412;2023-06-14T00:41:44;5.03;;;2.80;;
16973;SDS011;8603;46.944;7.412;2023-06-14T00:44:13;3.10;;;2.78;;
16973;SDS011;8603;46.944;7.412;2023-06-14T00:46:42;5.38;;;2.80;;
16973;SDS011;8603;46.944;7.412;2023-06-14T00:49:08;3.97;;;3.28;;
16973;SDS011;8603;46.944;7.412;2023-06-14T00:51:35;3.53;;;2.90;;
16973;SDS011;8603;46.944;7.412;2023-06-14T00:54:10;5.40;;;3.08;;
16973;SDS011;8603;46.944;7.412;2023-06-14T00:56:51;3.73;;;2.93;;
16973;SDS011;8603;46.944;7.412;2023-06-14T00:59:25;5.27;;;3.40;;
16973;SDS011;8603;46.944;7.412;2023-06-14T01:01:53;5.17;;;3.30;;
16973;SDS011;8603;46.944;7.412;2023-06-14T01:04:19;3.55;;;3.13;;
16973;SDS011;8603;46.944;7.412;2023-06-14T01:07:02;3.83;;;3.27;;
16973;SDS011;8603;46.944;7.412;2023-06-14T01:12:34;4.63;;;3.00;;
16973;SDS011;8603;46.944;7.412;2023-06-14T01:15:01;4.27;;;2.90;;
16973;SDS011;8603;46.944;7.412;2023-06-14T01:17:28;5.57;;;3.43;;
16973;SDS011;8603;46.944;7.412;2023-06-14T01:19:58;3.93;;;2.90;;
16973;SDS011;8603;46.944;7.412;2023-06-14T01:22:29;4.27;;;3.17;;
16973;SDS011;8603;46.944;7.412;2023-06-14T01:24:55;3.73;;;3.00;;
16973;SDS011;8603;46.944;7.412;2023-06-14T01:27:39;3.83;;;2.92;;
16973;SDS011;8603;46.944;7.412;2023-06-14T01:30:08;3.83;;;3.40;;
16973;SDS011;8603;46.944;7.412;2023-06-14T01:32:39;5.03;;;3.10;;
16973;SDS011;8603;46.944;7.412;2023-06-14T01:35:16;3.93;;;3.13;;
16973;SDS011;8603;46.944;7.412;2023-06-14T01:37:41;3.30;;;3.00;;
16973;SDS011;8603;46.944;7.412;2023-06-14T01:40:15;4.30;;;2.80;;
16973;SDS011;8603;46.944;7.412;2023-06-14T01:42:42;4.73;;;2.60;;
16973;SDS011;8603;46.944;7.412;2023-06-14T01:45:09;5.13;;;2.70;;
16973;SDS011;8603;46.944;7.412;2023-06-14T01:47:53;4.90;;;2.77;;
16973;SDS011;8603;46.944;7.412;2023-06-14T01:50:39;4.07;;;3.00;;
16973;SDS011;8603;46.944;7.412;2023-06-14T01:53:12;5.87;;;3.20;;
16973;SDS011;8603;46.944;7.412;2023-06-14T01:55:47;3.17;;;2.73;;
16973;SDS011;8603;46.944;7.412;2023-06-14T01:58:19;3.37;;;2.93;;
16973;SDS011;8603;46.944;7.412;2023-06-14T02:00:44;4.47;;;2.70;;
16973;SDS011;8603;46.944;7.412;2023-06-14T02:03:12;2.77;;;2.50;;
16973;SDS011;8603;46.944;7.412;2023-06-14T02:05:38;3.27;;;2.53;;
16973;SDS011;8603;46.944;7.412;2023-06-14T02:08:05;3.47;;;2.90;;
16973;SDS011;8603;46.944;7.412;2023-06-14T02:10:31;3.80;;;2.90;;
16973;SDS011;8603;46.944;7.412;2023-06-14T02:12:57;3.40;;;2.63;;
16973;SDS011;8603;46.944;7.412;2023-06-14T02:15:22;8.00;;;3.17;;
16973;SDS011;8603;46.944;7.412;2023-06-14T02:17:48;3.60;;;3.13;;
16973;SDS011;8603;46.944;7.412;2023-06-14T02:20:14;3.90;;;3.20;;
16973;SDS011;8603;46.944;7.412;2023-06-14T02:22:40;6.70;;;3.03;;
16973;SDS011;8603;46.944;7.412;2023-06-14T02:25:06;3.80;;;3.10;;
16973;SDS011;8603;46.944;7.412;2023-06-14T02:27:32;5.43;;;3.00;;
16973;SDS011;8603;46.944;7.412;2023-06-14T02:29:58;3.97;;;3.00;;
16973;SDS011;8603;46.944;7.412;2023-06-14T02:32:25;3.67;;;2.80;;
16973;SDS011;8603;46.944;7.412;2023-06-14T02:34:52;3.17;;;2.87;;
16973;SDS011;8603;46.944;7.412;2023-06-14T02:37:18;3.13;;;2.83;;
16973;SDS011;8603;46.944;7.412;2023-06-14T02:39:44;3.30;;;2.90;;
16973;SDS011;8603;46.944;7.412;2023-06-14T02:42:10;3.73;;;2.60;;
16973;SDS011;8603;46.944;7.412;2023-06-14T02:44:35;3.53;;;2.80;;
16973;SDS011;8603;46.944;7.412;2023-06-14T02:47:01;3.10;;;2.80;;
16973;SDS011;8603;46.944;7.412;2023-06-14T02:49:27;3.80;;;2.97;;
16973;SDS011;8603;46.944;7.412;2023-06-14T02:51:53;4.03;;;3.10;;
16973;SDS011;8603;46.944;7.412;2023-06-14T02:54:18;3.27;;;2.97;;
16973;SDS011;8603;46.944;7.412;2023-06-14T02:56:44;4.43;;;2.80;;
16973;SDS011;8603;46.944;7.412;2023-06-14T02:59:10;4.77;;;2.70;;
16973;SDS011;8603;46.944;7.412;2023-06-14T03:01:35;4.70;;;2.87;;
16973;SDS011;8603;46.944;7.412;2023-06-14T03:04:05;3.47;;;3.00;;
16973;SDS011;8603;46.944;7.412;2023-06-14T03:06:34;3.23;;;2.93;;
16973;SDS011;8603;46.944;7.412;2023-06-14T03:09:01;6.47;;;3.40;;
16973;SDS011;8603;46.944;7.412;2023-06-14T03:11:29;3.63;;;2.83;;
16973;SDS011;8603;46.944;7.412;2023-06-14T03:13:55;3.50;;;3.13;;
16973;SDS011;8603;46.944;7.412;2023-06-14T03:16:22;5.80;;;3.57;;
16973;SDS011;8603;46.944;7.412;2023-06-14T03:18:52;3.57;;;3.13;;
16973;SDS011;8603;46.944;7.412;2023-06-14T03:21:18;4.60;;;3.10;;
16973;SDS011;8603;46.944;7.412;2023-06-14T03:23:45;4.07;;;3.10;;
16973;SDS011;8603;46.944;7.412;2023-06-14T03:26:11;5.93;;;3.63;;
16973;SDS011;8603;46.944;7.412;2023-06-14T03:28:42;4.27;;;3.30;;
16973;SDS011;8603;46.944;7.412;2023-06-14T03:31:09;4.23;;;3.53;;
16973;SDS011;8603;46.944;7.412;2023-06-14T03:33:34;4.17;;;3.47;;
16973;SDS011;8603;46.944;7.412;2023-06-14T03:36:01;4.10;;;3.53;;
16973;SDS011;8603;46.944;7.412;2023-06-14T03:38:27;3.90;;;3.30;;
16973;SDS011;8603;46.944;7.412;2023-06-14T03:40:53;5.20;;;3.20;;
16973;SDS011;8603;46.944;7.412;2023-06-14T03:43:18;4.47;;;3.07;;
16973;SDS011;8603;46.944;7.412;2023-06-14T03:45:44;3.90;;;3.27;;
16973;SDS011;8603;46.944;7.412;2023-06-14T03:48:09;5.80;;;3.10;;
16973;SDS011;8603;46.944;7.412;2023-06-14T03:50:35;4.93;;;3.37;;
16973;SDS011;8603;46.944;7.412;2023-06-14T03:53:03;4.40;;;3.57;;
16973;SDS011;8603;46.944;7.412;2023-06-14T03:55:29;4.60;;;3.20;;
16973;SDS011;8603;46.944;7.412;2023-06-14T03:57:56;5.20;;;3.60;;
16973;SDS011;8603;46.944;7.412;2023-06-14T04:00:22;5.97;;;3.40;;
16973;SDS011;8603;46.944;7.412;2023-06-14T04:02:48;5.93;;;3.43;;
16973;SDS011;8603;46.944;7.412;2023-06-14T04:05:14;4.43;;;3.47;;
16973;SDS011;8603;46.944;7.412;2023-06-14T04:07:41;4.43;;;3.50;;
16973;SDS011;8603;46.944;7.412;2023-06-14T04:10:09;3.50;;;3.10;;
16973;SDS011;8603;46.944;7.412;2023-06-14T04:12:39;5.93;;;3.23;;
16973;SDS011;8603;46.944;7.412;2023-06-14T04:15:05;4.47;;;3.43;;
16973;SDS011;8603;46.944;7.412;2023-06-14T04:17:31;4.10;;;3.07;;
16973;SDS011;8603;46.944;7.412;2023-06-14T04:20:00;4.63;;;3.00;;
16973;SDS011;8603;46.944;7.412;2023-06-14T04:22:29;7.13;;;3.20;;
16973;SDS011;8603;46.944;7.412;2023-06-14T04:24:55;4.87;;;2.93;;
16973;SDS011;8603;46.944;7.412;2023-06-14T04:27:24;4.97;;;3.00;;
16973;SDS011;8603;46.944;7.412;2023-06-14T04:29:51;4.40;;;3.90;;
16973;SDS011;8603;46.944;7.412;2023-06-14T04:32:22;4.37;;;3.57;;
16973;SDS011;8603;46.944;7.412;2023-06-14T04:34:53;4.37;;;3.37;;
16973;SDS011;8603;46.944;7.412;2023-06-14T04:37:19;5.40;;;3.57;;
16973;SDS011;8603;46.944;7.412;2023-06-14T04:39:46;5.80;;;3.50;;
16973;SDS011;8603;46.944;7.412;2023-06-14T04:42:12;4.53;;;3.37;;
16973;SDS011;8603;46.944;7.412;2023-06-14T04:44:39;8.40;;;3.53;;
16973;SDS011;8603;46.944;7.412;2023-06-14T04:47:08;6.53;;;4.47;;
16973;SDS011;8603;46.944;7.412;2023-06-14T04:49:34;3.63;;;3.30;;
16973;SDS011;8603;46.944;7.412;2023-06-14T04:52:00;4.10;;;3.67;;
16973;SDS011;8603;46.944;7.412;2023-06-14T04:54:26;4.27;;;3.30;;
16973;SDS011;8603;46.944;7.412;2023-06-14T04:56:52;3.77;;;3.20;;
16973;SDS011;8603;46.944;7.412;2023-06-14T04:59:20;6.57;;;3.60;;
16973;SDS011;8603;46.944;7.412;2023-06-14T05:01:48;6.33;;;3.70;;
16973;SDS011;8603;46.944;7.412;2023-06-14T05:04:17;5.37;;;3.40;;
16973;SDS011;8603;46.944;7.412;2023-06-14T05:06:44;3.50;;;3.10;;
16973;SDS011;8603;46.944;7.412;2023-06-14T05:09:10;5.40;;;3.33;;
16973;SDS011;8603;46.944;7.412;2023-06-14T05:11:36;4.00;;;3.60;;
16973;SDS011;8603;46.944;7.412;2023-06-14T05:14:02;7.87;;;3.60;;
16973;SDS011;8603;46.944;7.412;2023-06-14T05:16:27;5.73;;;3.70;;
16973;SDS011;8603;46.944;7.412;2023-06-14T05:18:54;5.63;;;3.40;;
16973;SDS011;8603;46.944;7.412;2023-06-14T05:21:20;6.40;;;3.40;;
16973;SDS011;8603;46.944;7.412;2023-06-14T05:23:45;5.13;;;3.53;;
16973;SDS011;8603;46.944;7.412;2023-06-14T05:26:11;7.07;;;3.80;;
16973;SDS011;8603;46.944;7.412;2023-06-14T05:28:37;5.03;;;4.10;;
16973;SDS011;8603;46.944;7.412;2023-06-14T05:31:11;5.17;;;3.67;;
16973;SDS011;8603;46.944;7.412;2023-06-14T05:33:40;6.90;;;3.83;;
16973;SDS011;8603;46.944;7.412;2023-06-14T05:36:08;4.90;;;3.10;;
16973;SDS011;8603;46.944;7.412;2023-06-14T05:38:33;5.50;;;3.63;;
16973;SDS011;8603;46.944;7.412;2023-06-14T05:41:13;7.53;;;3.53;;
16973;SDS011;8603;46.944;7.412;2023-06-14T05:48:06;5.50;;;3.17;;
16973;SDS011;8603;46.944;7.412;2023-06-14T05:51:19;4.38;;;3.33;;
16973;SDS011;8603;46.944;7.412;2023-06-14T05:57:57;5.78;;;4.03;;
16973;SDS011;8603;46.944;7.412;2023-06-14T06:00:28;3.97;;;3.10;;
16973;SDS011;8603;46.944;7.412;2023-06-14T06:03:15;5.53;;;2.95;;
16973;SDS011;8603;46.944;7.412;2023-06-14T06:05:41;5.05;;;3.83;;
16973;SDS011;8603;46.944;7.412;2023-06-14T06:08:07;5.97;;;3.40;;
16973;SDS011;8603;46.944;7.412;2023-06-14T06:10:32;7.10;;;3.83;;
16973;SDS011;8603;46.944;7.412;2023-06-14T06:12:58;5.80;;;4.13;;
16973;SDS011;8603;46.944;7.412;2023-06-14T06:15:24;5.25;;;3.60;;
16973;SDS011;8603;46.944;7.412;2023-06-14T06:17:50;5.78;;;3.63;;
16973;SDS011;8603;46.944;7.412;2023-06-14T06:20:16;4.03;;;3.53;;
16973;SDS011;8603;46.944;7.412;2023-06-14T06:30:59;5.65;;;3.47;;
16973;SDS011;8603;46.944;7.412;2023-06-14T06:37:33;5.38;;;3.85;;
16973;SDS011;8603;46.944;7.412;2023-06-14T06:39:59;4.55;;;3.67;;
16973;SDS011;8603;46.944;7.412;2023-06-14T06:42:25;4.30;;;3.53;;
16973;SDS011;8603;46.944;7.412;2023-06-14T06:44:51;4.35;;;3.22;;
16973;SDS011;8603;46.944;7.412;2023-06-14T06:47:17;5.15;;;3.40;;
16973;SDS011;8603;46.944;7.412;2023-06-14T06:49:42;5.10;;;3.47;;
16973;SDS011;8603;46.944;7.412;2023-06-14T06:52:08;3.90;;;3.28;;
16973;SDS011;8603;46.944;7.412;2023-06-14T06:54:34;4.03;;;3.60;;
16973;SDS011;8603;46.944;7.412;2023-06-14T06:57:00;4.03;;;3.10;;
16973;SDS011;8603;46.944;7.412;2023-06-14T06:59:26;6.25;;;3.58;;
16973;SDS011;8603;46.944;7.412;2023-06-14T07:01:52;3.83;;;2.97;;
16973;SDS011;8603;46.944;7.412;2023-06-14T07:04:18;6.43;;;3.45;;
16973;SDS011;8603;46.944;7.412;2023-06-14T07:06:43;3.92;;;3.40;;
16973;SDS011;8603;46.944;7.412;2023-06-14T07:09:09;7.30;;;3.30;;
16973;SDS011;8603;46.944;7.412;2023-06-14T07:11:41;3.63;;;3.10;;
16973;SDS011;8603;46.944;7.412;2023-06-14T07:14:08;3.70;;;2.90;;
16973;SDS011;8603;46.944;7.412;2023-06-14T07:16:36;4.40;;;3.05;;
16973;SDS011;8603;46.944;7.412;2023-06-14T07:19:02;4.15;;;3.00;;
16973;SDS011;8603;46.944;7.412;2023-06-14T07:21:28;8.25;;;2.90;;
16973;SDS011;8603;46.944;7.412;2023-06-14T07:23:54;7.93;;;3.30;;
16973;SDS011;8603;46.944;7.412;2023-06-14T07:26:20;4.07;;;3.67;;
16973;SDS011;8603;46.944;7.412;2023-06-14T07:28:46;4.00;;;3.15;;
16973;SDS011;8603;46.944;7.412;2023-06-14T07:31:14;5.80;;;3.20;;
16973;SDS011;8603;46.944;7.412;2023-06-14T07:33:40;5.05;;;2.75;;
16973;SDS011;8603;46.944;7.412;2023-06-14T07:36:06;2.85;;;2.63;;
16973;SDS011;8603;46.944;7.412;2023-06-14T07:38:32;4.28;;;2.72;;
16973;SDS011;8603;46.944;7.412;2023-06-14T07:40:59;3.58;;;3.08;;
16973;SDS011;8603;46.944;7.412;2023-06-14T07:43:25;4.10;;;3.00;;
16973;SDS011;8603;46.944;7.412;2023-06-14T07:45:50;4.35;;;3.00;;
16973;SDS011;8603;46.944;7.412;2023-06-14T07:48:16;3.92;;;3.08;;
16973;SDS011;8603;46.944;7.412;2023-06-14T07:50:42;3.75;;;3.00;;
16973;SDS011;8603;46.944;7.412;2023-06-14T07:53:11;3.30;;;3.00;;
16973;SDS011;8603;46.944;7.412;2023-06-14T07:55:39;3.13;;;2.83;;
16973;SDS011;8603;46.944;7.412;2023-06-14T07:58:08;2.75;;;2.53;;
16973;SDS011;8603;46.944;7.412;2023-06-14T08:00:33;6.03;;;3.22;;
16973;SDS011;8603;46.944;7.412;2023-06-14T08:03:02;4.10;;;2.90;;
16973;SDS011;8603;46.944;7.412;2023-06-14T08:05:32;3.28;;;2.95;;
16973;SDS011;8603;46.944;7.412;2023-06-14T08:07:57;5.13;;;2.90;;
16973;SDS011;8603;46.944;7.412;2023-06-14T08:10:23;3.10;;;2.80;;
16973;SDS011;8603;46.944;7.412;2023-06-14T08:12:49;3.13;;;2.67;;
16973;SDS011;8603;46.944;7.412;2023-06-14T08:15:17;5.82;;;3.15;;
16973;SDS011;8603;46.944;7.412;2023-06-14T08:17:43;3.55;;;3.10;;
16973;SDS011;8603;46.944;7.412;2023-06-14T08:20:10;4.97;;;3.20;;
16973;SDS011;8603;46.944;7.412;2023-06-14T08:22:36;3.58;;;2.88;;
16973;SDS011;8603;46.944;7.412;2023-06-14T08:25:03;5.05;;;3.05;;
16973;SDS011;8603;46.944;7.412;2023-06-14T08:27:29;4.00;;;3.05;;
16973;SDS011;8603;46.944;7.412;2023-06-14T08:29:55;4.35;;;2.90;;
16973;SDS011;8603;46.944;7.412;2023-06-14T08:32:21;3.90;;;2.60;;
16973;SDS011;8603;46.944;7.412;2023-06-14T08:34:50;3.40;;;3.08;;
16973;SDS011;8603;46.944;7.412;2023-06-14T08:37:16;5.63;;;2.80;;
16973;SDS011;8603;46.944;7.412;2023-06-14T08:39:41;3.85;;;3.10;;
16973;SDS011;8603;46.944;7.412;2023-06-14T08:42:09;6.28;;;2.70;;
16973;SDS011;8603;46.944;7.412;2023-06-14T08:44:35;3.75;;;2.90;;
16973;SDS011;8603;46.944;7.412;2023-06-14T08:47:00;5.15;;;2.72;;
16973;SDS011;8603;46.944;7.412;2023-06-14T08:49:28;5.88;;;3.05;;
16973;SDS011;8603;46.944;7.412;2023-06-14T08:51:59;3.47;;;2.92;;
16973;SDS011;8603;46.944;7.412;2023-06-14T08:54:28;3.85;;;3.20;;
16973;SDS011;8603;46.944;7.412;2023-06-14T08:57:00;3.97;;;2.97;;
16973;SDS011;8603;46.944;7.412;2023-06-14T08:59:28;4.07;;;3.03;;
16973;SDS011;8603;46.944;7.412;2023-06-14T09:01:56;5.07;;;3.13;;
16973;SDS011;8603;46.944;7.412;2023-06-14T09:04:22;3.08;;;2.80;;
16973;SDS011;8603;46.944;7.412;2023-06-14T09:06:49;4.15;;;2.97;;
16973;SDS011;8603;46.944;7.412;2023-06-14T09:09:19;3.42;;;3.08;;
16973;SDS011;8603;46.944;7.412;2023-06-14T09:11:45;4.22;;;2.80;;
16973;SDS011;8603;46.944;7.412;2023-06-14T09:14:11;5.18;;;3.00;;
16973;SDS011;8603;46.944;7.412;2023-06-14T09:16:37;3.10;;;2.67;;
16973;SDS011;8603;46.944;7.412;2023-06-14T09:19:02;4.28;;;2.92;;
16973;SDS011;8603;46.944;7.412;2023-06-14T09:21:28;3.20;;;2.80;;
16973;SDS011;8603;46.944;7.412;2023-06-14T09:24:01;4.93;;;3.00;;
16973;SDS011;8603;46.944;7.412;2023-06-14T09:26:27;5.28;;;3.10;;
16973;SDS011;8603;46.944;7.412;2023-06-14T09:28:53;3.22;;;2.80;;
16973;SDS011;8603;46.944;7.412;2023-06-14T09:31:20;3.00;;;2.70;;
16973;SDS011;8603;46.944;7.412;2023-06-14T09:33:47;3.63;;;2.92;;
16973;SDS011;8603;46.944;7.412;2023-06-14T09:36:17;3.63;;;3.00;;
16973;SDS011;8603;46.944;7.412;2023-06-14T09:38:54;4.10;;;3.42;;
16973;SDS011;8603;46.944;7.412;2023-06-14T09:41:34;5.03;;;2.95;;
16973;SDS011;8603;46.944;7.412;2023-06-14T09:44:05;4.38;;;3.00;;
16973;SDS011;8603;46.944;7.412;2023-06-14T09:46:33;5.63;;;3.30;;
16973;SDS011;8603;46.944;7.412;2023-06-14T09:49:00;5.35;;;3.25;;
16973;SDS011;8603;46.944;7.412;2023-06-14T09:51:27;7.03;;;3.45;;
16973;SDS011;8603;46.944;7.412;2023-06-14T09:54:01;5.28;;;3.13;;
16973;SDS011;8603;46.944;7.412;2023-06-14T09:56:38;4.43;;;2.92;;
16973;SDS011;8603;46.944;7.412;2023-06-14T09:59:09;3.35;;;2.97;;
16973;SDS011;8603;46.944;7.412;2023-06-14T10:01:42;4.90;;;3.28;;
16973;SDS011;8603;46.944;7.412;2023-06-14T10:04:09;4.07;;;3.33;;
16973;SDS011;8603;46.944;7.412;2023-06-14T10:06:43;7.85;;;3.88;;
16973;SDS011;8603;46.944;7.412;2023-06-14T10:09:11;5.25;;;3.60;;
16973;SDS011;8603;46.944;7.412;2023-06-14T10:11:37;5.03;;;4.13;;
16973;SDS011;8603;46.944;7.412;2023-06-14T10:14:08;6.25;;;3.67;;
16973;SDS011;8603;46.944;7.412;2023-06-14T10:16:37;5.93;;;3.60;;
16973;SDS011;8603;46.944;7.412;2023-06-14T10:19:11;4.72;;;3.45;;
16973;SDS011;8603;46.944;7.412;2023-06-14T10:22:04;5.35;;;2.92;;
16973;SDS011;8603;46.944;7.412;2023-06-14T10:24:37;5.18;;;4.13;;
16973;SDS011;8603;46.944;7.412;2023-06-14T10:27:07;5.90;;;3.67;;
16973;SDS011;8603;46.944;7.412;2023-06-14T10:32:21;4.80;;;3.92;;
16973;SDS011;8603;46.944;7.412;2023-06-14T10:34:59;7.40;;;3.88;;
16973;SDS011;8603;46.944;7.412;2023-06-14T10:37:34;4.43;;;4.03;;
16973;SDS011;8603;46.944;7.412;2023-06-14T10:40:00;4.40;;;3.78;;
16973;SDS011;8603;46.944;7.412;2023-06-14T10:42:32;5.78;;;3.88;;
16973;SDS011;8603;46.944;7.412;2023-06-14T10:44:58;5.07;;;3.78;;
16973;SDS011;8603;46.944;7.412;2023-06-14T10:47:27;6.28;;;3.83;;
16973;SDS011;8603;46.944;7.412;2023-06-14T10:52:39;7.05;;;3.70;;
16973;SDS011;8603;46.944;7.412;2023-06-14T10:55:13;5.15;;;3.50;;
16973;SDS011;8603;46.944;7.412;2023-06-14T10:57:40;5.85;;;3.35;;
16973;SDS011;8603;46.944;7.412;2023-06-14T11:00:11;6.18;;;3.97;;
16973;SDS011;8603;46.944;7.412;2023-06-14T11:05:25;4.88;;;3.60;;
16973;SDS011;8603;46.944;7.412;2023-06-14T11:10:37;5.20;;;3.63;;
16973;SDS011;8603;46.944;7.412;2023-06-14T11:13:07;5.43;;;3.25;;
16973;SDS011;8603;46.944;7.412;2023-06-14T11:15:33;4.72;;;3.47;;
16973;SDS011;8603;46.944;7.412;2023-06-14T11:18:03;4.72;;;3.90;;
16973;SDS011;8603;46.944;7.412;2023-06-14T11:20:31;4.35;;;3.70;;
16973;SDS011;8603;46.944;7.412;2023-06-14T11:22:58;8.13;;;3.67;;
16973;SDS011;8603;46.944;7.412;2023-06-14T11:25:24;4.57;;;3.90;;
16973;SDS011;8603;46.944;7.412;2023-06-14T11:27:50;5.10;;;4.03;;
16973;SDS011;8603;46.944;7.412;2023-06-14T11:30:16;5.85;;;4.03;;
16973;SDS011;8603;46.944;7.412;2023-06-14T11:32:48;5.97;;;4.18;;
16973;SDS011;8603;46.944;7.412;2023-06-14T11:35:15;5.50;;;4.10;;
16973;SDS011;8603;46.944;7.412;2023-06-14T11:37:42;7.60;;;4.03;;
16973;SDS011;8603;46.944;7.412;2023-06-14T11:40:09;4.45;;;3.35;;
16973;SDS011;8603;46.944;7.412;2023-06-14T11:42:37;7.60;;;4.18;;
16973;SDS011;8603;46.944;7.412;2023-06-14T11:45:03;5.88;;;3.80;;
16973;SDS011;8603;46.944;7.412;2023-06-14T11:47:32;4.32;;;3.90;;
16973;SDS011;8603;46.944;7.412;2023-06-14T11:49:59;4.10;;;3.70;;
16973;SDS011;8603;46.944;7.412;2023-06-14T11:52:25;4.28;;;3.83;;
16973;SDS011;8603;46.944;7.412;2023-06-14T11:54:50;4.30;;;3.90;;
16973;SDS011;8603;46.944;7.412;2023-06-14T11:57:20;6.63;;;3.90;;
16973;SDS011;8603;46.944;7.412;2023-06-14T11:59:46;4.05;;;3.65;;
16973;SDS011;8603;46.944;7.412;2023-06-14T12:02:15;6.82;;;4.00;;
16973;SDS011;8603;46.944;7.412;2023-06-14T12:04:42;5.25;;;3.80;;
16973;SDS011;8603;46.944;7.412;2023-06-14T12:07:08;4.97;;;3.92;;
16973;SDS011;8603;46.944;7.412;2023-06-14T12:09:37;5.07;;;3.50;;
16973;SDS011;8603;46.944;7.412;2023-06-14T12:12:02;5.22;;;3.17;;
16973;SDS011;8603;46.944;7.412;2023-06-14T12:14:31;6.10;;;3.80;;
16973;SDS011;8603;46.944;7.412;2023-06-14T12:17:06;5.85;;;3.47;;
16973;SDS011;8603;46.944;7.412;2023-06-14T12:19:34;5.32;;;3.63;;
16973;SDS011;8603;46.944;7.412;2023-06-14T12:22:08;5.55;;;3.33;;
16973;SDS011;8603;46.944;7.412;2023-06-14T12:24:35;3.90;;;3.53;;
16973;SDS011;8603;46.944;7.412;2023-06-14T12:27:01;7.75;;;3.88;;
16973;SDS011;8603;46.944;7.412;2023-06-14T12:29:29;6.70;;;3.50;;
16973;SDS011;8603;46.944;7.412;2023-06-14T12:31:55;4.63;;;3.95;;
16973;SDS011;8603;46.944;7.412;2023-06-14T12:34:25;4.30;;;3.90;;
16973;SDS011;8603;46.944;7.412;2023-06-14T12:36:55;4.10;;;3.70;;
16973;SDS011;8603;46.944;7.412;2023-06-14T12:39:22;5.85;;;3.50;;
16973;SDS011;8603;46.944;7.412;2023-06-14T12:41:48;6.85;;;3.55;;
16973;SDS011;8603;46.944;7.412;2023-06-14T12:44:14;5.28;;;3.80;;
16973;SDS011;8603;46.944;7.412;2023-06-14T12:46:40;5.63;;;3.78;;
16973;SDS011;8603;46.944;7.412;2023-06-14T12:49:08;4.70;;;3.67;;
16973;SDS011;8603;46.944;7.412;2023-06-14T12:51:34;4.43;;;3.63;;
16973;SDS011;8603;46.944;7.412;2023-06-14T12:54:00;6.82;;;3.75;;
16973;SDS011;8603;46.944;7.412;2023-06-14T12:56:28;4.93;;;3.53;;
16973;SDS011;8603;46.944;7.412;2023-06-14T12:58:54;3.70;;;3.40;;
16973;SDS011;8603;46.944;7.412;2023-06-14T13:01:20;5.47;;;3.50;;
16973;SDS011;8603;46.944;7.412;2023-06-14T13:03:48;5.22;;;3.08;;
16973;SDS011;8603;46.944;7.412;2023-06-14T13:06:16;4.30;;;3.67;;
16973;SDS011;8603;46.944;7.412;2023-06-14T13:08:42;4.00;;;3.60;;
16973;SDS011;8603;46.944;7.412;2023-06-14T13:11:08;7.07;;;3.70;;
16973;SDS011;8603;46.944;7.412;2023-06-14T13:13:34;6.28;;;3.95;;
16973;SDS011;8603;46.944;7.412;2023-06-14T13:15:59;8.75;;;3.63;;
16973;SDS011;8603;46.944;7.412;2023-06-14T13:18:25;4.85;;;3.50;;
16973;SDS011;8603;46.944;7.412;2023-06-14T13:20:54;5.95;;;3.33;;
16973;SDS011;8603;46.944;7.412;2023-06-14T13:23:20;5.38;;;3.30;;
16973;SDS011;8603;46.944;7.412;2023-06-14T13:25:46;4.72;;;3.20;;
16973;SDS011;8603;46.944;7.412;2023-06-14T13:28:11;4.00;;;3.40;;
16973;SDS011;8603;46.944;7.412;2023-06-14T13:30:37;4.03;;;3.42;;
16973;SDS011;8603;46.944;7.412;2023-06-14T13:33:03;7.43;;;3.70;;
16973;SDS011;8603;46.944;7.412;2023-06-14T13:35:31;3.80;;;3.30;;
16973;SDS011;8603;46.944;7.412;2023-06-14T13:37:57;4.05;;;2.92;;
16973;SDS011;8603;46.944;7.412;2023-06-14T13:40:22;4.28;;;3.47;;
16973;SDS011;8603;46.944;7.412;2023-06-14T13:42:48;6.88;;;3.13;;
16973;SDS011;8603;46.944;7.412;2023-06-14T13:45:14;6.53;;;3.00;;
16973;SDS011;8603;46.944;7.412;2023-06-14T13:47:40;4.93;;;3.25;;
16973;SDS011;8603;46.944;7.412;2023-06-14T13:50:06;5.35;;;3.13;;
16973;SDS011;8603;46.944;7.412;2023-06-14T13:52:36;9.68;;;3.45;;
16973;SDS011;8603;46.944;7.412;2023-06-14T13:55:02;3.65;;;2.95;;
16973;SDS011;8603;46.944;7.412;2023-06-14T13:57:28;3.45;;;3.10;;
16973;SDS011;8603;46.944;7.412;2023-06-14T13:59:53;5.32;;;2.70;;
16973;SDS011;8603;46.944;7.412;2023-06-14T14:02:20;5.70;;;3.50;;
16973;SDS011;8603;46.944;7.412;2023-06-14T14:04:48;4.68;;;3.08;;
16973;SDS011;8603;46.944;7.412;2023-06-14T14:07:17;3.65;;;3.35;;
16973;SDS011;8603;46.944;7.412;2023-06-14T14:09:43;5.95;;;3.05;;
16973;SDS011;8603;46.944;7.412;2023-06-14T14:12:10;5.25;;;2.97;;
16973;SDS011;8603;46.944;7.412;2023-06-14T14:14:39;3.20;;;2.90;;
16973;SDS011;8603;46.944;7.412;2023-06-14T14:17:06;6.00;;;3.20;;
16973;SDS011;8603;46.944;7.412;2023-06-14T14:19:32;4.10;;;2.97;;
16973;SDS011;8603;46.944;7.412;2023-06-14T14:21:58;3.35;;;3.03;;
16973;SDS011;8603;46.944;7.412;2023-06-14T14:24:23;4.38;;;2.85;;
16973;SDS011;8603;46.944;7.412;2023-06-14T14:26:53;3.17;;;2.80;;
16973;SDS011;8603;46.944;7.412;2023-06-14T14:29:22;4.22;;;2.83;;
16973;SDS011;8603;46.944;7.412;2023-06-14T14:31:48;4.00;;;3.13;;
16973;SDS011;8603;46.944;7.412;2023-06-14T14:34:13;3.65;;;3.20;;
16973;SDS011;8603;46.944;7.412;2023-06-14T14:36:48;3.63;;;2.95;;
16973;SDS011;8603;46.944;7.412;2023-06-14T14:39:14;4.85;;;3.20;;
16973;SDS011;8603;46.944;7.412;2023-06-14T14:41:40;3.63;;;3.03;;
16973;SDS011;8603;46.944;7.412;2023-06-14T14:44:13;5.28;;;3.30;;
16973;SDS011;8603;46.944;7.412;2023-06-14T14:46:38;3.90;;;2.80;;
16973;SDS011;8603;46.944;7.412;2023-06-14T14:49:10;3.55;;;3.00;;
16973;SDS011;8603;46.944;7.412;2023-06-14T14:51:39;6.03;;;3.30;;
16973;SDS011;8603;46.944;7.412;2023-06-14T14:54:19;3.17;;;2.90;;
16973;SDS011;8603;46.944;7.412;2023-06-14T14:57:27;4.30;;;3.13;;
16973;SDS011;8603;46.944;7.412;2023-06-14T15:00:02;5.50;;;3.33;;
16973;SDS011;8603;46.944;7.412;2023-06-14T15:02:50;3.78;;;2.92;;
16973;SDS011;8603;46.944;7.412;2023-06-14T15:05:18;4.32;;;2.83;;
16973;SDS011;8603;46.944;7.412;2023-06-14T15:07:47;3.55;;;2.90;;
16973;SDS011;8603;46.944;7.412;2023-06-14T15:10:13;3.22;;;2.92;;
16973;SDS011;8603;46.944;7.412;2023-06-14T15:12:39;5.10;;;2.92;;
16973;SDS011;8603;46.944;7.412;2023-06-14T15:15:05;5.45;;;3.20;;
16973;SDS011;8603;46.944;7.412;2023-06-14T15:17:30;3.33;;;2.88;;
16973;SDS011;8603;46.944;7.412;2023-06-14T15:19:56;4.47;;;3.30;;
16973;SDS011;8603;46.944;7.412;2023-06-14T15:22:24;3.92;;;2.90;;
16973;SDS011;8603;46.944;7.412;2023-06-14T15:24:49;4.13;;;2.55;;
16973;SDS011;8603;46.944;7.412;2023-06-14T15:27:18;3.30;;;3.00;;
16973;SDS011;8603;46.944;7.412;2023-06-14T15:29:44;3.90;;;2.90;;
16973;SDS011;8603;46.944;7.412;2023-06-14T15:32:10;3.35;;;2.90;;
16973;SDS011;8603;46.944;7.412;2023-06-14T15:34:36;3.05;;;2.75;;
16973;SDS011;8603;46.944;7.412;2023-06-14T15:37:04;4.25;;;3.13;;
16973;SDS011;8603;46.944;7.412;2023-06-14T15:39:32;5.07;;;3.08;;
16973;SDS011;8603;46.944;7.412;2023-06-14T15:41:58;5.55;;;2.90;;